sensor_id;sensor_type;location;lat;lon;timestamp;temperature;humidity
65478;SHT31;53678;39.642;22.430;2023-10-08T00:02:04;17.59;88.55
65478;SHT31;53678;39.642;22.430;2023-10-08T00:04:33;17.40;89.45
65478;SHT31;53678;39.642;22.430;2023-10-08T00:07:09;17.07;90.23
65478;SHT31;53678;39.642;22.430;2023-10-08T00:09:35;17.02;90.75
65478;SHT31;53678;39.642;22.430;2023-10-08T00:12:05;17.04;90.98
65478;SHT31;53678;39.642;22.430;2023-10-08T00:14:31;17.16;91.37
65478;SHT31;53678;39.642;22.430;2023-10-08T00:17:10;17.32;90.46
65478;SHT31;53678;39.642;22.430;2023-10-08T00:19:37;17.32;89.58
65478;SHT31;53678;39.642;22.430;2023-10-08T00:22:05;17.33;89.82
65478;SHT31;53678;39.642;22.430;2023-10-08T00:24:32;17.19;89.30
65478;SHT31;53678;39.642;22.430;2023-10-08T00:26:59;16.95;90.75
65478;SHT31;53678;39.642;22.430;2023-10-08T00:29:26;17.01;91.13
65478;SHT31;53678;39.642;22.430;2023-10-08T00:31:52;17.15;90.44
65478;SHT31;53678;39.642;22.430;2023-10-08T00:34:22;17.28;89.91
65478;SHT31;53678;39.642;22.430;2023-10-08T00:36:54;17.39;89.51
65478;SHT31;53678;39.642;22.430;2023-10-08T00:39:20;17.38;88.74
65478;SHT31;53678;39.642;22.430;2023-10-08T00:41:51;17.35;88.76
65478;SHT31;53678;39.642;22.430;2023-10-08T00:44:20;17.32;88.80
65478;SHT31;53678;39.642;22.430;2023-10-08T00:46:56;17.25;88.83
65478;SHT31;53678;39.642;22.430;2023-10-08T00:49:23;17.28;89.06
65478;SHT31;53678;39.642;22.430;2023-10-08T00:51:57;17.33;88.89
65478;SHT31;53678;39.642;22.430;2023-10-08T00:54:38;17.38;88.51
65478;SHT31;53678;39.642;22.430;2023-10-08T00:57:22;17.39;88.18
65478;SHT31;53678;39.642;22.430;2023-10-08T00:59:49;17.36;88.30
65478;SHT31;53678;39.642;22.430;2023-10-08T01:02:25;17.31;88.07
65478;SHT31;53678;39.642;22.430;2023-10-08T01:04:55;17.39;88.07
65478;SHT31;53678;39.642;22.430;2023-10-08T01:07:22;17.40;87.42
65478;SHT31;53678;39.642;22.430;2023-10-08T01:09:49;17.39;87.71
65478;SHT31;53678;39.642;22.430;2023-10-08T01:12:25;17.42;87.93
65478;SHT31;53678;39.642;22.430;2023-10-08T01:15:14;17.50;87.52
65478;SHT31;53678;39.642;22.430;2023-10-08T01:17:49;17.57;87.41
65478;SHT31;53678;39.642;22.430;2023-10-08T01:20:24;17.62;87.10
65478;SHT31;53678;39.642;22.430;2023-10-08T01:23:01;17.65;86.85
65478;SHT31;53678;39.642;22.430;2023-10-08T01:25:29;17.29;87.72
65478;SHT31;53678;39.642;22.430;2023-10-08T01:27:56;17.11;89.06
65478;SHT31;53678;39.642;22.430;2023-10-08T01:30:27;17.21;89.50
65478;SHT31;53678;39.642;22.430;2023-10-08T01:32:59;17.28;88.80
65478;SHT31;53678;39.642;22.430;2023-10-08T01:35:28;17.28;88.33
65478;SHT31;53678;39.642;22.430;2023-10-08T01:37:57;17.33;88.58
65478;SHT31;53678;39.642;22.430;2023-10-08T01:40:26;17.39;88.54
65478;SHT31;53678;39.642;22.430;2023-10-08T01:42:52;17.40;88.12
65478;SHT31;53678;39.642;22.430;2023-10-08T01:45:18;17.32;87.81
65478;SHT31;53678;39.642;22.430;2023-10-08T01:47:45;17.22;88.33
65478;SHT31;53678;39.642;22.430;2023-10-08T01:50:10;17.19;88.48
65478;SHT31;53678;39.642;22.430;2023-10-08T01:52:53;17.21;88.67
65478;SHT31;53678;39.642;22.430;2023-10-08T01:55:19;17.28;88.44
65478;SHT31;53678;39.642;22.430;2023-10-08T01:57:46;17.31;88.47
65478;SHT31;53678;39.642;22.430;2023-10-08T02:00:12;17.36;88.14
65478;SHT31;53678;39.642;22.430;2023-10-08T02:02:40;17.43;87.75
65478;SHT31;53678;39.642;22.430;2023-10-08T02:05:08;17.46;87.25
65478;SHT31;53678;39.642;22.430;2023-10-08T02:07:35;17.50;87.24
65478;SHT31;53678;39.642;22.430;2023-10-08T02:10:00;17.52;86.87
65478;SHT31;53678;39.642;22.430;2023-10-08T02:12:26;17.50;86.61
65478;SHT31;53678;39.642;22.430;2023-10-08T02:14:52;17.21;87.15
65478;SHT31;53678;39.642;22.430;2023-10-08T02:17:18;16.85;88.60
65478;SHT31;53678;39.642;22.430;2023-10-08T02:19:45;16.59;88.70
65478;SHT31;53678;39.642;22.430;2023-10-08T02:22:11;16.40;89.49
65478;SHT31;53678;39.642;22.430;2023-10-08T02:24:37;16.64;88.57
65478;SHT31;53678;39.642;22.430;2023-10-08T02:27:05;16.57;88.49
65478;SHT31;53678;39.642;22.430;2023-10-08T02:29:32;16.59;88.15
65478;SHT31;53678;39.642;22.430;2023-10-08T02:31:58;16.60;87.70
65478;SHT31;53678;39.642;22.430;2023-10-08T02:34:25;16.54;87.55
65478;SHT31;53678;39.642;22.430;2023-10-08T02:36:50;16.52;87.74
65478;SHT31;53678;39.642;22.430;2023-10-08T02:39:16;16.53;87.57
65478;SHT31;53678;39.642;22.430;2023-10-08T02:41:48;16.50;87.29
65478;SHT31;53678;39.642;22.430;2023-10-08T02:44:15;16.47;87.75
65478;SHT31;53678;39.642;22.430;2023-10-08T02:46:43;16.50;87.44
65478;SHT31;53678;39.642;22.430;2023-10-08T02:49:16;16.56;87.36
65478;SHT31;53678;39.642;22.430;2023-10-08T02:51:47;16.63;87.25
65478;SHT31;53678;39.642;22.430;2023-10-08T02:54:13;16.71;87.14
65478;SHT31;53678;39.642;22.430;2023-10-08T02:56:53;16.80;86.75
65478;SHT31;53678;39.642;22.430;2023-10-08T02:59:23;16.81;86.06
65478;SHT31;53678;39.642;22.430;2023-10-08T03:01:50;16.71;86.11
65478;SHT31;53678;39.642;22.430;2023-10-08T03:04:22;16.71;86.38
65478;SHT31;53678;39.642;22.430;2023-10-08T03:06:49;16.71;86.59
65478;SHT31;53678;39.642;22.430;2023-10-08T03:09:19;16.73;86.48
65478;SHT31;53678;39.642;22.430;2023-10-08T03:11:48;16.75;86.46
65478;SHT31;53678;39.642;22.430;2023-10-08T03:14:18;16.75;86.27
65478;SHT31;53678;39.642;22.430;2023-10-08T03:16:52;16.85;86.25
65478;SHT31;53678;39.642;22.430;2023-10-08T03:19:21;16.92;85.78
65478;SHT31;53678;39.642;22.430;2023-10-08T03:21:48;16.84;85.78
65478;SHT31;53678;39.642;22.430;2023-10-08T03:24:19;16.27;88.20
65478;SHT31;53678;39.642;22.430;2023-10-08T03:27:00;15.95;90.50
65478;SHT31;53678;39.642;22.430;2023-10-08T03:29:41;16.01;90.25
65478;SHT31;53678;39.642;22.430;2023-10-08T03:32:11;16.17;89.87
65478;SHT31;53678;39.642;22.430;2023-10-08T03:34:47;16.06;89.92
65478;SHT31;53678;39.642;22.430;2023-10-08T03:37:17;16.01;90.25
65478;SHT31;53678;39.642;22.430;2023-10-08T03:39:50;16.06;89.99
65478;SHT31;53678;39.642;22.430;2023-10-08T03:42:45;16.09;89.95
65478;SHT31;53678;39.642;22.430;2023-10-08T03:45:15;15.95;89.88
65478;SHT31;53678;39.642;22.430;2023-10-08T03:47:48;15.53;91.52
65478;SHT31;53678;39.642;22.430;2023-10-08T03:50:28;15.34;92.49
65478;SHT31;53678;39.642;22.430;2023-10-08T03:53:15;15.31;92.47
65478;SHT31;53678;39.642;22.430;2023-10-08T03:55:41;15.16;93.16
65478;SHT31;53678;39.642;22.430;2023-10-08T03:58:08;15.23;93.41
65478;SHT31;53678;39.642;22.430;2023-10-08T04:00:55;15.36;92.83
65478;SHT31;53678;39.642;22.430;2023-10-08T04:03:37;15.44;91.81
65478;SHT31;53678;39.642;22.430;2023-10-08T04:06:21;15.29;92.95
65478;SHT31;53678;39.642;22.430;2023-10-08T04:09:00;15.47;92.61
65478;SHT31;53678;39.642;22.430;2023-10-08T04:11:35;15.59;92.38
65478;SHT31;53678;39.642;22.430;2023-10-08T04:14:15;15.55;91.55
65478;SHT31;53678;39.642;22.430;2023-10-08T04:16:44;15.62;91.89
65478;SHT31;53678;39.642;22.430;2023-10-08T04:19:11;15.67;91.20
65478;SHT31;53678;39.642;22.430;2023-10-08T04:21:37;15.68;91.20
65478;SHT31;53678;39.642;22.430;2023-10-08T04:24:05;15.74;91.14
65478;SHT31;53678;39.642;22.430;2023-10-08T04:26:31;15.77;90.38
65478;SHT31;53678;39.642;22.430;2023-10-08T04:28:59;15.72;89.87
65478;SHT31;53678;39.642;22.430;2023-10-08T04:31:31;15.74;90.00
65478;SHT31;53678;39.642;22.430;2023-10-08T04:34:09;15.79;89.99
65478;SHT31;53678;39.642;22.430;2023-10-08T04:36:43;15.82;89.58
65478;SHT31;53678;39.642;22.430;2023-10-08T04:39:10;15.94;89.22
65478;SHT31;53678;39.642;22.430;2023-10-08T04:41:40;15.92;88.21
65478;SHT31;53678;39.642;22.430;2023-10-08T04:44:09;16.15;87.95
65478;SHT31;53678;39.642;22.430;2023-10-08T04:46:44;16.40;87.06
65478;SHT31;53678;39.642;22.430;2023-10-08T04:49:16;16.78;86.44
65478;SHT31;53678;39.642;22.430;2023-10-08T04:52:06;17.32;85.16
65478;SHT31;53678;39.642;22.430;2023-10-08T04:54:42;17.77;83.21
65478;SHT31;53678;39.642;22.430;2023-10-08T04:57:17;18.00;82.31
65478;SHT31;53678;39.642;22.430;2023-10-08T04:59:44;18.28;80.91
65478;SHT31;53678;39.642;22.430;2023-10-08T05:02:12;18.42;79.31
65478;SHT31;53678;39.642;22.430;2023-10-08T05:04:56;18.55;78.66
65478;SHT31;53678;39.642;22.430;2023-10-08T05:07:37;18.65;77.59
65478;SHT31;53678;39.642;22.430;2023-10-08T05:10:26;18.75;77.50
65478;SHT31;53678;39.642;22.430;2023-10-08T05:12:53;19.04;77.49
65478;SHT31;53678;39.642;22.430;2023-10-08T05:15:31;19.61;75.23
65478;SHT31;53678;39.642;22.430;2023-10-08T05:18:07;20.17;74.22
65478;SHT31;53678;39.642;22.430;2023-10-08T05:20:59;20.65;72.39
65478;SHT31;53678;39.642;22.430;2023-10-08T05:23:27;20.90;71.95
65478;SHT31;53678;39.642;22.430;2023-10-08T05:25:54;21.06;71.66
65478;SHT31;53678;39.642;22.430;2023-10-08T05:28:43;21.12;71.55
65478;SHT31;53678;39.642;22.430;2023-10-08T05:31:29;22.18;68.76
65478;SHT31;53678;39.642;22.430;2023-10-08T05:34:08;22.45;68.58
65478;SHT31;53678;39.642;22.430;2023-10-08T05:36:43;23.11;66.94
65478;SHT31;53678;39.642;22.430;2023-10-08T05:39:17;23.54;66.70
65478;SHT31;53678;39.642;22.430;2023-10-08T05:42:00;22.17;70.34
65478;SHT31;53678;39.642;22.430;2023-10-08T05:44:43;22.49;68.70
65478;SHT31;53678;39.642;22.430;2023-10-08T05:47:32;21.56;72.13
65478;SHT31;53678;39.642;22.430;2023-10-08T05:50:01;22.10;70.83
65478;SHT31;53678;39.642;22.430;2023-10-08T05:52:44;21.67;72.05
65478;SHT31;53678;39.642;22.430;2023-10-08T05:55:20;21.89;72.37
65478;SHT31;53678;39.642;22.430;2023-10-08T05:57:53;22.20;71.77
65478;SHT31;53678;39.642;22.430;2023-10-08T06:00:29;21.84;72.88
65478;SHT31;53678;39.642;22.430;2023-10-08T06:03:12;22.07;71.52
65478;SHT31;53678;39.642;22.430;2023-10-08T06:06:04;22.56;70.68
65478;SHT31;53678;39.642;22.430;2023-10-08T06:08:42;23.21;69.28
65478;SHT31;53678;39.642;22.430;2023-10-08T06:11:35;23.48;68.93
65478;SHT31;53678;39.642;22.430;2023-10-08T06:14:11;23.28;68.73
65478;SHT31;53678;39.642;22.430;2023-10-08T06:16:43;23.40;68.65
65478;SHT31;53678;39.642;22.430;2023-10-08T06:19:13;24.03;67.12
65478;SHT31;53678;39.642;22.430;2023-10-08T06:21:41;23.47;68.40
65478;SHT31;53678;39.642;22.430;2023-10-08T06:24:12;22.77;70.17
65478;SHT31;53678;39.642;22.430;2023-10-08T06:26:42;21.70;73.51
65478;SHT31;53678;39.642;22.430;2023-10-08T06:29:10;21.22;74.65
65478;SHT31;53678;39.642;22.430;2023-10-08T06:31:47;20.47;78.41
65478;SHT31;53678;39.642;22.430;2023-10-08T06:34:17;19.18;81.58
65478;SHT31;53678;39.642;22.430;2023-10-08T06:36:48;19.30;80.12
65478;SHT31;53678;39.642;22.430;2023-10-08T06:39:15;19.67;79.87
65478;SHT31;53678;39.642;22.430;2023-10-08T06:41:45;20.06;78.07
65478;SHT31;53678;39.642;22.430;2023-10-08T06:44:12;20.48;77.22
65478;SHT31;53678;39.642;22.430;2023-10-08T06:46:41;20.19;77.11
65478;SHT31;53678;39.642;22.430;2023-10-08T06:49:08;20.92;74.90
65478;SHT31;53678;39.642;22.430;2023-10-08T06:51:41;20.50;75.08
65478;SHT31;53678;39.642;22.430;2023-10-08T06:54:10;19.39;78.77
65478;SHT31;53678;39.642;22.430;2023-10-08T06:56:39;19.74;78.50
65478;SHT31;53678;39.642;22.430;2023-10-08T06:59:05;20.47;77.10
65478;SHT31;53678;39.642;22.430;2023-10-08T07:01:35;21.06;74.73
65478;SHT31;53678;39.642;22.430;2023-10-08T07:04:05;21.11;75.34
65478;SHT31;53678;39.642;22.430;2023-10-08T07:06:33;20.27;76.42
65478;SHT31;53678;39.642;22.430;2023-10-08T07:09:03;20.04;77.56
65478;SHT31;53678;39.642;22.430;2023-10-08T07:11:33;20.47;75.99
65478;SHT31;53678;39.642;22.430;2023-10-08T07:14:05;20.74;74.85
65478;SHT31;53678;39.642;22.430;2023-10-08T07:16:31;20.91;74.35
65478;SHT31;53678;39.642;22.430;2023-10-08T07:18:58;21.04;74.67
65478;SHT31;53678;39.642;22.430;2023-10-08T07:21:29;21.33;72.91
65478;SHT31;53678;39.642;22.430;2023-10-08T07:24:04;21.53;72.00
65478;SHT31;53678;39.642;22.430;2023-10-08T07:26:35;21.29;73.03
65478;SHT31;53678;39.642;22.430;2023-10-08T07:29:06;21.84;72.02
65478;SHT31;53678;39.642;22.430;2023-10-08T07:31:36;22.08;70.41
65478;SHT31;53678;39.642;22.430;2023-10-08T07:34:03;21.47;71.76
65478;SHT31;53678;39.642;22.430;2023-10-08T07:36:42;21.80;70.90
65478;SHT31;53678;39.642;22.430;2023-10-08T07:39:09;21.91;70.80
65478;SHT31;53678;39.642;22.430;2023-10-08T07:41:49;22.14;71.40
65478;SHT31;53678;39.642;22.430;2023-10-08T07:44:15;22.52;69.97
65478;SHT31;53678;39.642;22.430;2023-10-08T07:46:41;22.14;70.98
65478;SHT31;53678;39.642;22.430;2023-10-08T07:49:06;22.59;68.80
65478;SHT31;53678;39.642;22.430;2023-10-08T07:51:32;22.59;68.38
65478;SHT31;53678;39.642;22.430;2023-10-08T07:53:59;22.70;68.24
65478;SHT31;53678;39.642;22.430;2023-10-08T07:56:25;22.95;67.87
65478;SHT31;53678;39.642;22.430;2023-10-08T07:58:52;23.24;67.99
65478;SHT31;53678;39.642;22.430;2023-10-08T08:01:18;23.59;67.05
65478;SHT31;53678;39.642;22.430;2023-10-08T08:03:46;23.69;66.64
65478;SHT31;53678;39.642;22.430;2023-10-08T08:06:14;23.57;66.61
65478;SHT31;53678;39.642;22.430;2023-10-08T08:08:41;23.14;67.90
65478;SHT31;53678;39.642;22.430;2023-10-08T08:11:08;23.54;67.88
65478;SHT31;53678;39.642;22.430;2023-10-08T08:13:46;23.69;66.45
65478;SHT31;53678;39.642;22.430;2023-10-08T08:16:13;23.92;65.96
65478;SHT31;53678;39.642;22.430;2023-10-08T08:18:47;22.93;68.38
65478;SHT31;53678;39.642;22.430;2023-10-08T08:21:18;22.89;69.39
65478;SHT31;53678;39.642;22.430;2023-10-08T08:23:47;23.31;67.86
65478;SHT31;53678;39.642;22.430;2023-10-08T08:26:22;23.03;68.53
65478;SHT31;53678;39.642;22.430;2023-10-08T08:28:59;22.97;68.82
65478;SHT31;53678;39.642;22.430;2023-10-08T08:31:28;22.70;69.58
65478;SHT31;53678;39.642;22.430;2023-10-08T08:33:58;23.03;68.88
65478;SHT31;53678;39.642;22.430;2023-10-08T08:36:39;23.59;68.20
65478;SHT31;53678;39.642;22.430;2023-10-08T08:39:12;23.85;66.76
65478;SHT31;53678;39.642;22.430;2023-10-08T08:42:03;23.68;67.14
65478;SHT31;53678;39.642;22.430;2023-10-08T08:44:35;23.66;67.05
65478;SHT31;53678;39.642;22.430;2023-10-08T08:47:05;23.81;67.21
65478;SHT31;53678;39.642;22.430;2023-10-08T08:49:36;23.54;67.73
65478;SHT31;53678;39.642;22.430;2023-10-08T08:52:04;23.50;67.77
65478;SHT31;53678;39.642;22.430;2023-10-08T08:54:30;23.58;67.34
65478;SHT31;53678;39.642;22.430;2023-10-08T08:57:00;23.40;67.90
65478;SHT31;53678;39.642;22.430;2023-10-08T08:59:30;23.79;67.53
65478;SHT31;53678;39.642;22.430;2023-10-08T09:01:59;24.10;66.74
65478;SHT31;53678;39.642;22.430;2023-10-08T09:04:32;24.02;66.18
65478;SHT31;53678;39.642;22.430;2023-10-08T09:07:01;24.32;66.00
65478;SHT31;53678;39.642;22.430;2023-10-08T09:09:34;24.50;64.90
65478;SHT31;53678;39.642;22.430;2023-10-08T09:12:03;24.56;64.70
65478;SHT31;53678;39.642;22.430;2023-10-08T09:14:31;24.75;64.19
65478;SHT31;53678;39.642;22.430;2023-10-08T09:17:00;24.74;64.01
65478;SHT31;53678;39.642;22.430;2023-10-08T09:19:30;24.67;64.80
65478;SHT31;53678;39.642;22.430;2023-10-08T09:22:09;24.60;64.34
65478;SHT31;53678;39.642;22.430;2023-10-08T09:24:38;24.56;64.56
65478;SHT31;53678;39.642;22.430;2023-10-08T09:27:05;24.68;64.34
65478;SHT31;53678;39.642;22.430;2023-10-08T09:29:33;24.59;63.58
65478;SHT31;53678;39.642;22.430;2023-10-08T09:32:08;24.56;64.42
65478;SHT31;53678;39.642;22.430;2023-10-08T09:34:33;24.70;64.63
65478;SHT31;53678;39.642;22.430;2023-10-08T09:37:00;24.74;64.24
65478;SHT31;53678;39.642;22.430;2023-10-08T09:39:28;24.14;65.11
65478;SHT31;53678;39.642;22.430;2023-10-08T09:42:01;24.50;64.50
65478;SHT31;53678;39.642;22.430;2023-10-08T09:44:37;24.41;64.56
65478;SHT31;53678;39.642;22.430;2023-10-08T09:47:07;24.54;65.04
65478;SHT31;53678;39.642;22.430;2023-10-08T09:52:25;24.80;64.63
65478;SHT31;53678;39.642;22.430;2023-10-08T09:55:00;25.02;63.71
65478;SHT31;53678;39.642;22.430;2023-10-08T09:57:29;25.18;63.36
65478;SHT31;53678;39.642;22.430;2023-10-08T09:59:56;25.30;63.06
65478;SHT31;53678;39.642;22.430;2023-10-08T10:02:26;25.19;62.60
65478;SHT31;53678;39.642;22.430;2023-10-08T10:04:55;24.95;63.13
65478;SHT31;53678;39.642;22.430;2023-10-08T10:07:21;24.92;63.25
65478;SHT31;53678;39.642;22.430;2023-10-08T10:09:51;25.22;62.45
65478;SHT31;53678;39.642;22.430;2023-10-08T10:12:21;25.16;62.34
65478;SHT31;53678;39.642;22.430;2023-10-08T10:14:53;25.05;62.83
65478;SHT31;53678;39.642;22.430;2023-10-08T10:17:26;25.14;61.95
65478;SHT31;53678;39.642;22.430;2023-10-08T10:19:59;25.05;62.31
65478;SHT31;53678;39.642;22.430;2023-10-08T10:22:32;24.87;62.72
65478;SHT31;53678;39.642;22.430;2023-10-08T10:25:02;24.88;62.71
65478;SHT31;53678;39.642;22.430;2023-10-08T10:30:32;24.87;62.59
65478;SHT31;53678;39.642;22.430;2023-10-08T10:33:00;25.14;61.84
65478;SHT31;53678;39.642;22.430;2023-10-08T10:35:27;25.46;61.41
65478;SHT31;53678;39.642;22.430;2023-10-08T10:37:53;25.83;59.28
65478;SHT31;53678;39.642;22.430;2023-10-08T10:40:22;25.88;58.46
65478;SHT31;53678;39.642;22.430;2023-10-08T10:43:08;25.79;58.05
65478;SHT31;53678;39.642;22.430;2023-10-08T10:45:41;25.63;58.15
65478;SHT31;53678;39.642;22.430;2023-10-08T10:48:12;25.71;58.10
65478;SHT31;53678;39.642;22.430;2023-10-08T10:50:48;25.94;57.55
65478;SHT31;53678;39.642;22.430;2023-10-08T10:53:34;25.84;57.97
65478;SHT31;53678;39.642;22.430;2023-10-08T10:56:14;25.96;58.77
65478;SHT31;53678;39.642;22.430;2023-10-08T10:58:47;25.96;59.69
65478;SHT31;53678;39.642;22.430;2023-10-08T11:01:25;25.98;58.59
65478;SHT31;53678;39.642;22.430;2023-10-08T11:03:56;26.14;58.92
65478;SHT31;53678;39.642;22.430;2023-10-08T11:06:25;26.34;58.35
65478;SHT31;53678;39.642;22.430;2023-10-08T11:08:52;26.09;57.45
65478;SHT31;53678;39.642;22.430;2023-10-08T11:11:28;25.77;58.09
65478;SHT31;53678;39.642;22.430;2023-10-08T11:13:59;26.01;57.61
65478;SHT31;53678;39.642;22.430;2023-10-08T11:16:26;26.04;58.14
65478;SHT31;53678;39.642;22.430;2023-10-08T11:18:53;26.07;58.55
65478;SHT31;53678;39.642;22.430;2023-10-08T11:21:23;26.08;58.78
65478;SHT31;53678;39.642;22.430;2023-10-08T11:23:51;26.11;59.00
65478;SHT31;53678;39.642;22.430;2023-10-08T11:26:22;26.18;57.93
65478;SHT31;53678;39.642;22.430;2023-10-08T11:28:58;26.36;57.80
65478;SHT31;53678;39.642;22.430;2023-10-08T11:31:29;26.42;57.58
65478;SHT31;53678;39.642;22.430;2023-10-08T11:34:02;26.35;57.45
65478;SHT31;53678;39.642;22.430;2023-10-08T11:36:36;26.27;57.74
65478;SHT31;53678;39.642;22.430;2023-10-08T11:39:14;26.27;57.68
65478;SHT31;53678;39.642;22.430;2023-10-08T11:42:00;26.29;58.06
65478;SHT31;53678;39.642;22.430;2023-10-08T11:44:32;26.02;59.08
65478;SHT31;53678;39.642;22.430;2023-10-08T11:47:02;25.63;59.88
65478;SHT31;53678;39.642;22.430;2023-10-08T11:49:40;25.88;59.37
65478;SHT31;53678;39.642;22.430;2023-10-08T11:52:15;26.08;58.43
65478;SHT31;53678;39.642;22.430;2023-10-08T11:54:44;26.09;56.75
65478;SHT31;53678;39.642;22.430;2023-10-08T11:57:13;26.05;57.63
65478;SHT31;53678;39.642;22.430;2023-10-08T11:59:39;26.36;56.77
65478;SHT31;53678;39.642;22.430;2023-10-08T12:02:09;26.52;55.63
65478;SHT31;53678;39.642;22.430;2023-10-08T12:04:42;26.55;55.36
65478;SHT31;53678;39.642;22.430;2023-10-08T12:07:10;26.25;55.43
65478;SHT31;53678;39.642;22.430;2023-10-08T12:09:36;26.34;53.67
65478;SHT31;53678;39.642;22.430;2023-10-08T12:12:05;26.42;54.86
65478;SHT31;53678;39.642;22.430;2023-10-08T12:14:39;26.58;54.61
65478;SHT31;53678;39.642;22.430;2023-10-08T12:17:05;26.53;53.37
65478;SHT31;53678;39.642;22.430;2023-10-08T12:19:37;26.52;52.73
65478;SHT31;53678;39.642;22.430;2023-10-08T12:22:06;26.53;53.35
65478;SHT31;53678;39.642;22.430;2023-10-08T12:24:33;26.49;54.11
65478;SHT31;53678;39.642;22.430;2023-10-08T12:26:59;26.62;54.38
65478;SHT31;53678;39.642;22.430;2023-10-08T12:29:24;26.51;53.88
65478;SHT31;53678;39.642;22.430;2023-10-08T12:31:52;26.49;52.83
65478;SHT31;53678;39.642;22.430;2023-10-08T12:34:19;26.51;52.25
65478;SHT31;53678;39.642;22.430;2023-10-08T12:36:44;26.62;51.71
65478;SHT31;53678;39.642;22.430;2023-10-08T12:39:13;26.66;51.95
65478;SHT31;53678;39.642;22.430;2023-10-08T12:41:42;26.65;52.36
65478;SHT31;53678;39.642;22.430;2023-10-08T12:44:10;26.56;51.81
65478;SHT31;53678;39.642;22.430;2023-10-08T12:46:36;26.55;52.65
65478;SHT31;53678;39.642;22.430;2023-10-08T12:49:02;26.51;53.13
65478;SHT31;53678;39.642;22.430;2023-10-08T12:51:29;26.29;53.43
65478;SHT31;53678;39.642;22.430;2023-10-08T12:54:00;26.27;53.50
65478;SHT31;53678;39.642;22.430;2023-10-08T12:56:47;26.34;54.14
65478;SHT31;53678;39.642;22.430;2023-10-08T12:59:20;26.29;53.31
65478;SHT31;53678;39.642;22.430;2023-10-08T13:01:49;26.36;53.50
65478;SHT31;53678;39.642;22.430;2023-10-08T13:04:21;26.17;52.65
65478;SHT31;53678;39.642;22.430;2023-10-08T13:06:55;26.46;52.68
65478;SHT31;53678;39.642;22.430;2023-10-08T13:09:26;26.41;52.58
65478;SHT31;53678;39.642;22.430;2023-10-08T13:11:52;26.29;52.65
65478;SHT31;53678;39.642;22.430;2023-10-08T13:14:19;26.21;52.55
65478;SHT31;53678;39.642;22.430;2023-10-08T13:16:48;26.28;52.37
65478;SHT31;53678;39.642;22.430;2023-10-08T13:19:15;26.46;52.21
65478;SHT31;53678;39.642;22.430;2023-10-08T13:21:41;26.46;52.51
65478;SHT31;53678;39.642;22.430;2023-10-08T13:24:07;26.46;52.96
65478;SHT31;53678;39.642;22.430;2023-10-08T13:26:35;26.46;53.10
65478;SHT31;53678;39.642;22.430;2023-10-08T13:29:03;26.58;53.28
65478;SHT31;53678;39.642;22.430;2023-10-08T13:31:28;26.71;52.85
65478;SHT31;53678;39.642;22.430;2023-10-08T13:33:55;26.66;52.90
65478;SHT31;53678;39.642;22.430;2023-10-08T13:36:25;26.56;52.40
65478;SHT31;53678;39.642;22.430;2023-10-08T13:38:51;26.53;52.06
65478;SHT31;53678;39.642;22.430;2023-10-08T13:41:17;26.42;52.44
65478;SHT31;53678;39.642;22.430;2023-10-08T13:43:47;26.56;53.26
65478;SHT31;53678;39.642;22.430;2023-10-08T13:46:15;26.80;52.77
65478;SHT31;53678;39.642;22.430;2023-10-08T13:48:44;26.76;52.56
65478;SHT31;53678;39.642;22.430;2023-10-08T13:51:20;26.79;53.07
65478;SHT31;53678;39.642;22.430;2023-10-08T13:53:50;26.69;53.34
65478;SHT31;53678;39.642;22.430;2023-10-08T13:56:20;26.60;53.73
65478;SHT31;53678;39.642;22.430;2023-10-08T13:58:51;26.69;53.47
65478;SHT31;53678;39.642;22.430;2023-10-08T14:01:21;26.80;52.94
65478;SHT31;53678;39.642;22.430;2023-10-08T14:03:48;26.79;53.23
65478;SHT31;53678;39.642;22.430;2023-10-08T14:06:15;26.75;53.33
65478;SHT31;53678;39.642;22.430;2023-10-08T14:08:43;26.63;53.26
65478;SHT31;53678;39.642;22.430;2023-10-08T14:11:20;26.60;53.39
65478;SHT31;53678;39.642;22.430;2023-10-08T14:13:52;26.53;52.77
65478;SHT31;53678;39.642;22.430;2023-10-08T14:16:19;26.49;53.13
65478;SHT31;53678;39.642;22.430;2023-10-08T14:18:50;26.49;52.93
65478;SHT31;53678;39.642;22.430;2023-10-08T14:21:20;26.55;52.62
65478;SHT31;53678;39.642;22.430;2023-10-08T14:23:52;26.59;52.26
65478;SHT31;53678;39.642;22.430;2023-10-08T14:26:18;26.51;52.56
65478;SHT31;53678;39.642;22.430;2023-10-08T14:28:50;26.51;52.01
65478;SHT31;53678;39.642;22.430;2023-10-08T14:31:20;26.49;52.03
65478;SHT31;53678;39.642;22.430;2023-10-08T14:33:50;26.49;51.93
65478;SHT31;53678;39.642;22.430;2023-10-08T14:36:33;26.42;51.90
65478;SHT31;53678;39.642;22.430;2023-10-08T14:39:19;26.29;51.17
65478;SHT31;53678;39.642;22.430;2023-10-08T14:42:03;26.25;51.58
65478;SHT31;53678;39.642;22.430;2023-10-08T14:44:48;26.22;51.73
65478;SHT31;53678;39.642;22.430;2023-10-08T14:47:16;26.21;51.98
65478;SHT31;53678;39.642;22.430;2023-10-08T14:49:42;26.20;52.15
65478;SHT31;53678;39.642;22.430;2023-10-08T14:52:09;26.17;52.37
65478;SHT31;53678;39.642;22.430;2023-10-08T14:54:41;26.13;51.92
65478;SHT31;53678;39.642;22.430;2023-10-08T14:57:08;26.07;52.29
65478;SHT31;53678;39.642;22.430;2023-10-08T14:59:35;26.13;52.34
65478;SHT31;53678;39.642;22.430;2023-10-08T15:02:01;26.17;52.21
65478;SHT31;53678;39.642;22.430;2023-10-08T15:04:27;26.35;51.78
65478;SHT31;53678;39.642;22.430;2023-10-08T15:06:57;26.28;51.89
65478;SHT31;53678;39.642;22.430;2023-10-08T15:09:23;26.18;52.04
65478;SHT31;53678;39.642;22.430;2023-10-08T15:11:52;26.04;52.54
65478;SHT31;53678;39.642;22.430;2023-10-08T15:14:22;25.94;51.72
65478;SHT31;53678;39.642;22.430;2023-10-08T15:16:52;25.84;52.29
65478;SHT31;53678;39.642;22.430;2023-10-08T15:19:21;25.73;52.60
65478;SHT31;53678;39.642;22.430;2023-10-08T15:21:48;25.67;53.15
65478;SHT31;53678;39.642;22.430;2023-10-08T15:24:21;25.69;53.04
65478;SHT31;53678;39.642;22.430;2023-10-08T15:26:50;25.59;53.08
65478;SHT31;53678;39.642;22.430;2023-10-08T15:29:19;25.49;53.39
65478;SHT31;53678;39.642;22.430;2023-10-08T15:31:46;25.47;53.23
65478;SHT31;53678;39.642;22.430;2023-10-08T15:34:12;25.42;54.01
65478;SHT31;53678;39.642;22.430;2023-10-08T15:36:39;25.40;54.17
65478;SHT31;53678;39.642;22.430;2023-10-08T15:39:05;25.36;53.68
65478;SHT31;53678;39.642;22.430;2023-10-08T15:41:31;25.30;53.92
65478;SHT31;53678;39.642;22.430;2023-10-08T15:43:57;25.25;54.47
65478;SHT31;53678;39.642;22.430;2023-10-08T15:46:24;25.16;54.94